createdAt,value
2016-04-03T00:00:04.197Z,1008.92
2016-04-03T00:01:03.950Z,1008.93
2016-04-03T00:02:03.905Z,1008.89
2016-04-03T00:03:03.861Z,1008.96
2016-04-03T00:04:03.817Z,1008.98
2016-04-03T00:05:03.772Z,1008.97
2016-04-03T00:06:03.728Z,1009
2016-04-03T00:07:03.684Z,1009.02
2016-04-03T00:08:03.625Z,1009.1
2016-04-03T00:09:03.580Z,1009.1
2016-04-03T00:10:03.536Z,1009.06
2016-04-03T00:11:03.491Z,1009.03
2016-04-03T00:12:06.447Z,1009.01
2016-04-03T00:13:03.403Z,1009.03
2016-04-03T00:14:03.344Z,1009.02
2016-04-03T00:15:03.299Z,1009.04
2016-04-03T00:16:03.255Z,1009.1
2016-04-03T00:17:03.211Z,1009.13
2016-04-03T00:18:03.167Z,1009.11
2016-04-03T00:19:03.108Z,1009.14
2016-04-03T00:20:03.063Z,1009.11
2016-04-03T00:21:03.019Z,1009.09
2016-04-03T00:22:02.975Z,1009.07
2016-04-03T00:23:02.930Z,1009.03
2016-04-03T00:24:02.887Z,1009.06
2016-04-03T00:25:02.842Z,1009.06
2016-04-03T00:26:02.814Z,1009.09
2016-04-03T00:27:02.754Z,1009.09
2016-04-03T00:28:02.710Z,1009.04
2016-04-03T00:29:02.651Z,1009.02
2016-04-03T00:30:05.606Z,1008.98
2016-04-03T00:31:02.562Z,1008.97
2016-04-03T00:32:02.517Z,1008.95
2016-04-03T00:33:02.473Z,1008.95
2016-04-03T00:34:02.429Z,1009
2016-04-03T00:35:02.369Z,1008.98
2016-04-03T00:36:02.325Z,1009.02
2016-04-03T00:37:02.280Z,1009.02
2016-04-03T00:38:02.236Z,1009.04
2016-04-03T00:39:02.192Z,1009.02
2016-04-03T00:40:02.148Z,1009.02
2016-04-03T00:41:02.104Z,1009.04
2016-04-03T00:42:02.045Z,1008.98
2016-04-03T00:43:02.016Z,1008.96
2016-04-03T00:44:01.956Z,1008.91
2016-04-03T00:45:01.911Z,1008.93
2016-04-03T00:46:01.867Z,1008.91
2016-04-03T00:47:01.824Z,1008.9
2016-04-03T00:48:01.779Z,1008.87
2016-04-03T00:49:01.719Z,1008.87
2016-04-03T00:50:01.674Z,1008.82
2016-04-03T00:51:01.630Z,1008.82
2016-04-03T00:52:01.587Z,1008.76
2016-04-03T00:53:01.730Z,1008.78
2016-04-03T00:54:01.499Z,1008.78
2016-04-03T00:55:01.454Z,1008.76
2016-04-03T00:56:01.394Z,1008.73
2016-04-03T00:57:01.350Z,1008.68
2016-04-03T00:58:01.306Z,1008.65
2016-04-03T00:59:01.262Z,1008.66
2016-04-03T01:00:01.217Z,1008.65
2016-04-03T01:01:04.190Z,1008.65
2016-04-03T01:02:01.114Z,1008.63
2016-04-03T01:03:01.085Z,1008.56
2016-04-03T01:04:01.026Z,1008.49
2016-04-03T01:05:00.982Z,1008.51
2016-04-03T01:06:00.937Z,1008.49
2016-04-03T01:07:00.893Z,1008.51
2016-04-03T01:08:00.859Z,1008.51
2016-04-03T01:09:00.796Z,1008.56
2016-04-03T01:10:00.751Z,1008.59
2016-04-03T01:11:00.707Z,1008.63
2016-04-03T01:12:00.663Z,1008.64
2016-04-03T01:13:00.603Z,1008.7
2016-04-03T01:14:00.559Z,1008.7
2016-04-03T01:15:00.514Z,1008.68
2016-04-03T01:16:03.502Z,1008.7
2016-04-03T01:17:00.430Z,1008.76
2016-04-03T01:18:00.386Z,1008.77
2016-04-03T01:19:00.327Z,1008.82
2016-04-03T01:20:00.282Z,1008.87
2016-04-03T01:21:00.441Z,1008.93
2016-04-03T01:22:00.193Z,1008.91
2016-04-03T01:23:00.149Z,1008.89
2016-04-03T01:24:00.090Z,1008.86
2016-04-03T01:25:00.061Z,1008.83
2016-04-03T01:26:00.002Z,1008.79
2016-04-03T01:26:59.958Z,1008.78
2016-04-03T01:28:02.929Z,1008.83
2016-04-03T01:28:59.869Z,1008.83
2016-04-03T01:30:00.027Z,1008.84
2016-04-03T01:30:59.765Z,1008.82
2016-04-03T01:31:59.721Z,1008.81
2016-04-03T01:32:59.692Z,1008.81
2016-04-03T01:33:59.648Z,1008.77
2016-04-03T01:34:59.587Z,1008.74
2016-04-03T01:35:59.543Z,1008.71
2016-04-03T01:36:59.500Z,1008.68
2016-04-03T01:38:02.455Z,1008.68
2016-04-03T01:38:59.412Z,1008.72
2016-04-03T01:39:59.351Z,1008.77
2016-04-03T01:40:59.307Z,1008.81
2016-04-03T01:41:59.263Z,1008.82
2016-04-03T01:42:59.219Z,1008.78
2016-04-03T01:43:59.175Z,1008.78
2016-04-03T01:44:59.114Z,1008.7
2016-04-03T01:45:59.070Z,1008.68
2016-04-03T01:46:59.027Z,1008.68
2016-04-03T01:47:58.983Z,1008.77
2016-04-03T01:48:58.939Z,1008.77
2016-04-03T01:49:58.894Z,1008.79
2016-04-03T01:50:58.850Z,1008.71
2016-04-03T01:51:58.805Z,1008.6
2016-04-03T01:52:58.746Z,1008.58
2016-04-03T01:54:01.717Z,1008.57
2016-04-03T01:54:58.658Z,1008.6
2016-04-03T01:55:58.613Z,1008.61
2016-04-03T01:56:58.569Z,1008.6
2016-04-03T01:57:58.524Z,1008.62
2016-04-03T01:58:58.480Z,1008.57
2016-04-03T01:59:58.421Z,1008.53
2016-04-03T02:00:58.377Z,1008.45
2016-04-03T02:01:58.333Z,1008.4
2016-04-03T02:02:58.288Z,1008.39
2016-04-03T02:03:58.244Z,1008.36
2016-04-03T02:04:58.200Z,1008.41
2016-04-03T02:06:01.156Z,1008.41
2016-04-03T02:06:58.112Z,1008.39
2016-04-03T02:08:01.072Z,1008.33
2016-04-03T02:08:58.012Z,1008.34
2016-04-03T02:09:57.953Z,1008.31
2016-04-03T02:10:57.925Z,1008.33
2016-04-03T02:11:57.865Z,1008.38
2016-04-03T02:12:57.820Z,1008.39
2016-04-03T02:13:57.776Z,1008.42
2016-04-03T02:14:57.731Z,1008.38
2016-04-03T02:15:57.688Z,1008.39
2016-04-03T02:16:57.628Z,1008.42
2016-04-03T02:17:57.614Z,1008.43
2016-04-03T02:18:57.742Z,1008.43
2016-04-03T02:19:57.494Z,1008.45
2016-04-03T02:20:57.451Z,1008.43
2016-04-03T02:21:57.407Z,1008.47
2016-04-03T02:22:57.363Z,1008.42
2016-04-03T02:23:57.303Z,1008.44
2016-04-03T02:24:57.258Z,1008.42
2016-04-03T02:25:57.215Z,1008.43
2016-04-03T02:26:57.170Z,1008.49
2016-04-03T02:27:57.126Z,1008.55
2016-04-03T02:28:57.098Z,1008.61
2016-04-03T02:29:57.038Z,1008.62
2016-04-03T02:30:56.993Z,1008.69
2016-04-03T02:31:56.949Z,1008.7
2016-04-03T02:32:59.904Z,1008.75
2016-04-03T02:33:59.861Z,1008.81
2016-04-03T02:34:56.801Z,1008.87
2016-04-03T02:35:56.788Z,1008.87
2016-04-03T02:36:59.729Z,1008.88
2016-04-03T02:37:56.668Z,1008.91
2016-04-03T02:38:56.609Z,1008.95
2016-04-03T02:39:56.564Z,1008.91
2016-04-03T02:40:56.520Z,1008.96
2016-04-03T02:41:56.476Z,1008.91
2016-04-03T02:42:59.447Z,1008.89
2016-04-03T02:43:59.403Z,1008.85
2016-04-03T02:44:56.328Z,1008.81
2016-04-03T02:45:59.300Z,1008.73
2016-04-03T02:46:56.240Z,1008.71
2016-04-03T02:47:56.195Z,1008.71
2016-04-03T02:48:56.152Z,1008.69
2016-04-03T02:49:56.107Z,1008.64
2016-04-03T02:50:56.063Z,1008.63
2016-04-03T02:51:56.002Z,1008.61
2016-04-03T02:52:55.958Z,1008.54
2016-04-03T02:53:58.930Z,1008.54
2016-04-03T02:54:58.886Z,1008.45
2016-04-03T02:55:55.827Z,1008.37
2016-04-03T02:56:58.798Z,1008.35
2016-04-03T02:57:55.738Z,1008.28
2016-04-03T02:58:55.694Z,1008.24
2016-04-03T02:59:55.650Z,1008.23
2016-04-03T03:00:55.605Z,1008.21
2016-04-03T03:01:58.562Z,1008.22
2016-04-03T03:02:55.501Z,1008.17
2016-04-03T03:03:55.660Z,1008.15
2016-04-03T03:04:58.413Z,1008.1
2016-04-03T03:05:55.353Z,1008.17
2016-04-03T03:06:55.309Z,1008.25
2016-04-03T03:07:55.483Z,1008.22
2016-04-03T03:08:55.220Z,1008.26
2016-04-03T03:09:55.176Z,1008.26
2016-04-03T03:10:55.132Z,1008.19
2016-04-03T03:11:55.089Z,1008.15
2016-04-03T03:12:55.044Z,1008.08
2016-04-03T03:13:54.984Z,1008.02
2016-04-03T03:14:54.939Z,1008.02
2016-04-03T03:15:57.895Z,1008.02
2016-04-03T03:16:54.852Z,1008.01
2016-04-03T03:17:54.854Z,1008.02
2016-04-03T03:18:54.764Z,1007.95
2016-04-03T03:19:54.703Z,1007.99
2016-04-03T03:20:54.659Z,1007.94
2016-04-03T03:21:57.631Z,1007.88
2016-04-03T03:22:54.571Z,1007.83
2016-04-03T03:23:57.527Z,1007.84
2016-04-03T03:24:54.482Z,1007.81
2016-04-03T03:25:54.422Z,1007.85
2016-04-03T03:26:54.379Z,1007.91
2016-04-03T03:27:54.334Z,1007.97
2016-04-03T03:28:54.290Z,1007.9
2016-04-03T03:29:54.246Z,1007.92
2016-04-03T03:30:54.201Z,1007.89
2016-04-03T03:31:54.143Z,1007.93
2016-04-03T03:32:57.113Z,1007.85
2016-04-03T03:33:54.054Z,1007.84
2016-04-03T03:34:54.010Z,1007.82
2016-04-03T03:35:53.981Z,1007.9
2016-04-03T03:36:53.921Z,1007.9
2016-04-03T03:37:53.876Z,1007.89
2016-04-03T03:38:53.832Z,1007.89
2016-04-03T03:39:56.804Z,1007.89
2016-04-03T03:40:53.728Z,1007.93
2016-04-03T03:41:56.715Z,1007.95
2016-04-03T03:42:53.639Z,1007.93
2016-04-03T03:43:53.595Z,1007.95
2016-04-03T03:44:53.552Z,1007.95
2016-04-03T03:45:53.508Z,1007.93
2016-04-03T03:46:53.464Z,1007.9
2016-04-03T03:47:53.419Z,1007.9
2016-04-03T03:48:53.359Z,1007.9
2016-04-03T03:49:56.330Z,1007.85
2016-04-03T03:50:53.271Z,1007.89
2016-04-03T03:51:53.227Z,1007.92
2016-04-03T03:52:53.166Z,1007.91
2016-04-03T03:53:53.138Z,1007.87
2016-04-03T03:54:53.079Z,1007.89
2016-04-03T03:55:53.035Z,1007.91
2016-04-03T03:56:53.006Z,1007.88
2016-04-03T03:57:52.947Z,1007.89
2016-04-03T03:58:52.902Z,1007.87
2016-04-03T03:59:52.858Z,1007.84
2016-04-03T04:00:52.813Z,1007.81
2016-04-03T04:01:52.754Z,1007.79
2016-04-03T04:02:55.726Z,1007.81
2016-04-03T04:03:52.665Z,1007.75
2016-04-03T04:04:52.621Z,1007.73
2016-04-03T04:05:52.576Z,1007.74
2016-04-03T04:06:52.533Z,1007.73
2016-04-03T04:07:52.473Z,1007.73
2016-04-03T04:08:52.429Z,1007.76
2016-04-03T04:09:52.385Z,1007.72
2016-04-03T04:10:55.340Z,1007.72
2016-04-03T04:11:52.296Z,1007.66
2016-04-03T04:12:52.252Z,1007.65
2016-04-03T04:13:52.208Z,1007.64
2016-04-03T04:14:52.164Z,1007.65
2016-04-03T04:15:52.103Z,1007.69
2016-04-03T04:16:52.059Z,1007.65
2016-04-03T04:17:52.015Z,1007.61
2016-04-03T04:18:54.986Z,1007.63
2016-04-03T04:19:51.927Z,1007.62
2016-04-03T04:20:51.883Z,1007.69
2016-04-03T04:21:54.823Z,1007.68
2016-04-03T04:22:51.780Z,1007.65
2016-04-03T04:23:51.735Z,1007.7
2016-04-03T04:24:51.691Z,1007.73
2016-04-03T04:25:51.646Z,1007.73
2016-04-03T04:26:51.602Z,1007.75
2016-04-03T04:27:54.558Z,1007.76
2016-04-03T04:28:51.529Z,1007.76
2016-04-03T04:29:54.470Z,1007.77
2016-04-03T04:30:51.410Z,1007.76
2016-04-03T04:31:51.366Z,1007.79
2016-04-03T04:32:51.322Z,1007.77
2016-04-03T04:33:51.480Z,1007.76
2016-04-03T04:34:51.218Z,1007.78
2016-04-03T04:35:51.189Z,1007.76
2016-04-03T04:36:54.129Z,1007.79
2016-04-03T04:37:54.085Z,1007.77
2016-04-03T04:38:51.040Z,1007.77
2016-04-03T04:39:53.996Z,1007.78
2016-04-03T04:40:50.952Z,1007.8
2016-04-03T04:41:50.892Z,1007.76
2016-04-03T04:42:50.848Z,1007.75
2016-04-03T04:43:50.804Z,1007.74
2016-04-03T04:44:50.948Z,1007.76
2016-04-03T04:45:50.716Z,1007.8
2016-04-03T04:46:50.672Z,1007.82
2016-04-03T04:47:50.627Z,1007.89
2016-04-03T04:48:50.583Z,1007.88
2016-04-03T04:49:50.523Z,1007.87
2016-04-03T04:50:50.480Z,1007.9
2016-04-03T04:51:50.435Z,1007.92
2016-04-03T04:52:50.391Z,1007.91
2016-04-03T04:53:50.346Z,1007.87
2016-04-03T04:54:50.286Z,1007.9
2016-04-03T04:55:53.461Z,1007.9
2016-04-03T04:56:50.198Z,1007.95
2016-04-03T04:57:53.170Z,1007.9
2016-04-03T04:58:50.110Z,1007.94
2016-04-03T04:59:50.066Z,1007.95
2016-04-03T05:00:50.022Z,1007.94
2016-04-03T05:01:49.962Z,1007.91
2016-04-03T05:02:49.918Z,1007.88
2016-04-03T05:03:49.873Z,1007.86
2016-04-03T05:04:49.829Z,1007.84
2016-04-03T05:05:49.785Z,1007.87
2016-04-03T05:06:49.741Z,1007.85
2016-04-03T05:07:49.916Z,1007.9
2016-04-03T05:08:52.653Z,1007.92
2016-04-03T05:09:49.593Z,1007.9
2016-04-03T05:10:49.548Z,1007.93
2016-04-03T05:11:49.504Z,1007.94
2016-04-03T05:12:49.460Z,1007.95
2016-04-03T05:13:49.416Z,1007.91
2016-04-03T05:14:52.579Z,1007.92
2016-04-03T05:15:49.290Z,1007.87
2016-04-03T05:16:52.250Z,1007.92
2016-04-03T05:17:49.178Z,1007.93
2016-04-03T05:18:52.140Z,1007.89
2016-04-03T05:19:49.076Z,1007.92
2016-04-03T05:20:49.028Z,1007.86
2016-04-03T05:21:48.964Z,1007.86
2016-04-03T05:22:48.931Z,1007.86
2016-04-03T05:23:48.869Z,1007.86
2016-04-03T05:24:48.837Z,1007.93
2016-04-03T05:25:48.776Z,1007.93
2016-04-03T05:26:48.730Z,1007.93
2016-04-03T05:27:48.700Z,1007.93
2016-04-03T05:28:48.639Z,1007.99
2016-04-03T05:29:48.593Z,1007.97
2016-04-03T05:30:48.533Z,1007.97
2016-04-03T05:31:48.488Z,1007.93
2016-04-03T05:32:48.443Z,1007.96
2016-04-03T05:33:48.399Z,1008
2016-04-03T05:34:48.339Z,1008
2016-04-03T05:35:51.312Z,1007.99
2016-04-03T05:36:48.250Z,1008.05
2016-04-03T05:37:48.205Z,1008.04
2016-04-03T05:38:48.160Z,1008.03
2016-04-03T05:39:48.116Z,1007.99
2016-04-03T05:40:48.071Z,1007.99
2016-04-03T05:41:48.012Z,1008.04
2016-04-03T05:42:47.968Z,1008.06
2016-04-03T05:43:50.939Z,1008.06
2016-04-03T05:44:50.911Z,1008.08
2016-04-03T05:45:47.834Z,1008.06
2016-04-03T05:46:50.806Z,1008.07
2016-04-03T05:47:47.747Z,1008.09
2016-04-03T05:48:47.702Z,1008.07
2016-04-03T05:49:47.642Z,1008.04
2016-04-03T05:50:47.614Z,1008.07
2016-04-03T05:51:47.555Z,1008.09
2016-04-03T05:52:47.510Z,1008.04
2016-04-03T05:53:47.466Z,1008.07
2016-04-03T05:54:50.438Z,1008.08
2016-04-03T05:55:47.378Z,1008.09
2016-04-03T05:56:47.333Z,1008.13
2016-04-03T05:57:47.274Z,1008.22
2016-04-03T05:58:47.230Z,1008.17
2016-04-03T05:59:47.186Z,1008.19
2016-04-03T06:00:47.141Z,1008.22
2016-04-03T06:01:47.097Z,1008.26
2016-04-03T06:02:47.052Z,1008.21
2016-04-03T06:03:50.008Z,1008.3
2016-04-03T06:04:49.949Z,1008.33
2016-04-03T06:05:46.905Z,1008.25
2016-04-03T06:06:46.860Z,1008.24
2016-04-03T06:07:46.816Z,1008.23
2016-04-03T06:08:46.772Z,1008.21
2016-04-03T06:09:46.915Z,1008.21
2016-04-03T06:10:46.668Z,1008.27
2016-04-03T06:11:46.624Z,1008.35
2016-04-03T06:12:49.595Z,1008.34
2016-04-03T06:13:46.535Z,1008.35
2016-04-03T06:14:46.492Z,1008.36
2016-04-03T06:15:46.431Z,1008.44
2016-04-03T06:16:46.403Z,1008.47
2016-04-03T06:17:46.343Z,1008.45
2016-04-03T06:18:46.298Z,1008.43
2016-04-03T06:19:46.255Z,1008.43
2016-04-03T06:20:46.211Z,1008.49
2016-04-03T06:21:46.151Z,1008.49
2016-04-03T06:22:46.122Z,1008.5
2016-04-03T06:23:49.078Z,1008.53
2016-04-03T06:24:49.034Z,1008.5
2016-04-03T06:25:45.975Z,1008.5
2016-04-03T06:26:45.930Z,1008.47
2016-04-03T06:27:45.886Z,1008.43
2016-04-03T06:28:45.826Z,1008.39
2016-04-03T06:29:48.797Z,1008.44
2016-04-03T06:30:45.738Z,1008.45
2016-04-03T06:31:45.694Z,1008.44
2016-04-03T06:32:45.649Z,1008.44
2016-04-03T06:33:45.605Z,1008.45
2016-04-03T06:34:45.561Z,1008.5
2016-04-03T06:35:45.501Z,1008.54
2016-04-03T06:36:45.457Z,1008.56
2016-04-03T06:37:45.413Z,1008.57
2016-04-03T06:38:45.384Z,1008.56
2016-04-03T06:39:45.324Z,1008.56
2016-04-03T06:40:45.296Z,1008.56
2016-04-03T06:41:48.235Z,1008.56
2016-04-03T06:42:45.176Z,1008.54
2016-04-03T06:43:45.132Z,1008.55
2016-04-03T06:44:45.087Z,1008.57
2016-04-03T06:45:45.246Z,1008.57
2016-04-03T06:46:44.999Z,1008.57
2016-04-03T06:47:47.956Z,1008.53
2016-04-03T06:48:44.896Z,1008.55
2016-04-03T06:49:44.851Z,1008.54
2016-04-03T06:50:44.823Z,1008.55
2016-04-03T06:51:47.778Z,1008.56
2016-04-03T06:52:44.719Z,1008.58
2016-04-03T06:53:44.675Z,1008.58
2016-04-03T06:54:44.614Z,1008.61
2016-04-03T06:55:44.570Z,1008.57
2016-04-03T06:56:47.526Z,1008.58
2016-04-03T06:57:44.498Z,1008.54
2016-04-03T06:58:44.642Z,1008.55
2016-04-03T06:59:44.394Z,1008.52
2016-04-03T07:00:44.350Z,1008.53
2016-04-03T07:01:44.305Z,1008.5
2016-04-03T07:02:44.261Z,1008.52
2016-04-03T07:03:44.202Z,1008.52
2016-04-03T07:04:44.172Z,1008.58
2016-04-03T07:05:44.129Z,1008.55
2016-04-03T07:06:44.069Z,1008.59
2016-04-03T07:07:44.024Z,1008.56
2016-04-03T07:08:43.980Z,1008.56
2016-04-03T07:09:46.921Z,1008.55
2016-04-03T07:10:46.876Z,1008.55
2016-04-03T07:11:43.833Z,1008.55
2016-04-03T07:12:43.788Z,1008.52
2016-04-03T07:13:43.729Z,1008.52
2016-04-03T07:14:43.700Z,1008.53
2016-04-03T07:15:43.641Z,1008.51
2016-04-03T07:16:43.612Z,1008.46
2016-04-03T07:17:46.568Z,1008.49
2016-04-03T07:18:43.508Z,1008.49
2016-04-03T07:19:46.463Z,1008.48
2016-04-03T07:20:43.420Z,1008.46
2016-04-03T07:21:43.360Z,1008.44
2016-04-03T07:22:43.331Z,1008.46
2016-04-03T07:23:43.271Z,1008.48
2016-04-03T07:24:43.226Z,1008.45
2016-04-03T07:25:43.183Z,1008.48
2016-04-03T07:26:43.139Z,1008.48
2016-04-03T07:27:43.094Z,1008.48
2016-04-03T07:28:46.050Z,1008.46
2016-04-03T07:29:42.990Z,1008.48
2016-04-03T07:30:46.149Z,1008.47
2016-04-03T07:31:42.917Z,1008.43
2016-04-03T07:32:42.858Z,1008.4
2016-04-03T07:33:42.814Z,1008.42
2016-04-03T07:34:42.754Z,1008.38
2016-04-03T07:35:42.711Z,1008.34
2016-04-03T07:36:45.666Z,1008.29
2016-04-03T07:37:45.622Z,1008.26
2016-04-03T07:38:42.578Z,1008.3
2016-04-03T07:39:42.533Z,1008.22
2016-04-03T07:40:42.489Z,1008.19
2016-04-03T07:41:42.429Z,1008.2
2016-04-03T07:42:42.385Z,1008.15
2016-04-03T07:43:42.341Z,1008.13
2016-04-03T07:44:45.312Z,1008.12
2016-04-03T07:45:42.252Z,1008.1
2016-04-03T07:46:45.208Z,1008.07
2016-04-03T07:47:42.163Z,1008.07
2016-04-03T07:48:42.120Z,1008.05
2016-04-03T07:49:42.059Z,1008.05
2016-04-03T07:50:42.015Z,1008.08
2016-04-03T07:51:41.971Z,1008.11
2016-04-03T07:52:41.927Z,1008.09
2016-04-03T07:53:41.884Z,1008.12
2016-04-03T07:54:41.839Z,1008.18
2016-04-03T07:55:41.795Z,1008.16
2016-04-03T07:56:44.954Z,1008.2
2016-04-03T07:57:41.690Z,1008.2
2016-04-03T07:58:41.647Z,1008.24
2016-04-03T07:59:41.587Z,1008.24
2016-04-03T08:00:41.542Z,1008.22
2016-04-03T08:01:41.498Z,1008.29
2016-04-03T08:02:41.453Z,1008.32
2016-04-03T08:03:50.426Z,1008.29
2016-04-03T08:04:41.381Z,1008.37
2016-04-03T08:05:44.322Z,1008.4
2016-04-03T08:06:44.262Z,1008.46
2016-04-03T08:07:41.233Z,1008.49
2016-04-03T08:08:41.174Z,1008.53
2016-04-03T08:09:41.129Z,1008.57
2016-04-03T08:10:41.085Z,1008.56
2016-04-03T08:11:41.041Z,1008.59
2016-04-03T08:12:41.013Z,1008.6
2016-04-03T08:13:43.952Z,1008.62
2016-04-03T08:14:40.908Z,1008.63
2016-04-03T08:15:43.864Z,1008.59
2016-04-03T08:16:41.007Z,1008.61
2016-04-03T08:17:40.760Z,1008.6
2016-04-03T08:18:40.715Z,1008.63
2016-04-03T08:19:40.671Z,1008.63
2016-04-03T08:20:40.627Z,1008.63
2016-04-03T08:21:40.567Z,1008.64
2016-04-03T08:22:40.524Z,1008.63
2016-04-03T08:23:40.479Z,1008.67
2016-04-03T08:24:43.467Z,1008.65
2016-04-03T08:25:40.376Z,1008.64
2016-04-03T08:26:40.348Z,1008.54
2016-04-03T08:27:40.303Z,1008.56
2016-04-03T08:28:40.243Z,1008.6
2016-04-03T08:29:40.402Z,1008.58
2016-04-03T08:30:40.154Z,1008.57
2016-04-03T08:31:40.111Z,1008.55
2016-04-03T08:32:40.067Z,1008.64
2016-04-03T08:33:40.022Z,1008.6
2016-04-03T08:34:39.978Z,1008.6
2016-04-03T08:35:39.918Z,1008.58
2016-04-03T08:36:39.874Z,1008.58
2016-04-03T08:37:39.830Z,1008.57
2016-04-03T08:38:39.785Z,1008.46
2016-04-03T08:39:39.741Z,1008.41
2016-04-03T08:40:39.697Z,1008.38
2016-04-03T08:41:39.699Z,1008.36
2016-04-03T08:42:42.608Z,1008.37
2016-04-03T08:43:42.549Z,1008.34
2016-04-03T08:44:39.505Z,1008.35
2016-04-03T08:45:39.460Z,1008.39
2016-04-03T08:46:39.416Z,1008.35
2016-04-03T08:47:39.356Z,1008.39
2016-04-03T08:48:39.327Z,1008.44
2016-04-03T08:49:39.268Z,1008.37
2016-04-03T08:50:39.223Z,1008.41
2016-04-03T08:51:39.179Z,1008.4
2016-04-03T08:52:39.135Z,1008.36
2016-04-03T08:53:39.075Z,1008.33
2016-04-03T08:54:39.047Z,1008.31
2016-04-03T08:55:38.987Z,1008.26
2016-04-03T08:56:38.942Z,1008.2
2016-04-03T08:57:38.899Z,1008.3
2016-04-03T08:58:41.870Z,1008.28
2016-04-03T08:59:38.811Z,1008.22
2016-04-03T09:00:38.766Z,1008.22
2016-04-03T09:01:38.925Z,1008.2
2016-04-03T09:02:38.662Z,1008.2
2016-04-03T09:03:38.617Z,1008.28
2016-04-03T09:04:38.574Z,1008.23
2016-04-03T09:05:38.530Z,1008.26
2016-04-03T09:06:38.470Z,1008.26
2016-04-03T09:07:38.438Z,1008.26
2016-04-03T09:08:41.388Z,1008.28
2016-04-03T09:09:38.344Z,1008.25
2016-04-03T09:10:38.285Z,1008.22
2016-04-03T09:11:38.240Z,1008.17
2016-04-03T09:12:38.196Z,1008.18
2016-04-03T09:13:38.354Z,1008.17
2016-04-03T09:14:38.107Z,1008.08
2016-04-03T09:15:38.064Z,1008.09
2016-04-03T09:16:38.020Z,1008.1
2016-04-03T09:17:40.976Z,1008.1
2016-04-03T09:18:37.915Z,1008.07
2016-04-03T09:19:37.887Z,1008.05
2016-04-03T09:20:37.828Z,1007.99
2016-04-03T09:21:37.783Z,1007.98
2016-04-03T09:22:37.723Z,1007.94
2016-04-03T09:23:37.678Z,1007.88
2016-04-03T09:24:37.634Z,1007.83
2016-04-03T09:25:37.590Z,1007.79
2016-04-03T09:26:37.749Z,1007.8
2016-04-03T09:27:37.486Z,1007.87
2016-04-03T09:28:37.458Z,1007.87
2016-04-03T09:29:37.414Z,1007.9
2016-04-03T09:30:37.369Z,1007.93
2016-04-03T09:31:37.310Z,1007.94
2016-04-03T09:32:37.265Z,1007.94
2016-04-03T09:33:37.222Z,1007.93
2016-04-03T09:34:37.177Z,1007.91
2016-04-03T09:35:37.133Z,1007.92
2016-04-03T09:36:40.088Z,1007.87
2016-04-03T09:37:37.029Z,1007.91
2016-04-03T09:38:36.987Z,1007.91
2016-04-03T09:39:36.942Z,1007.91
2016-04-03T09:40:36.898Z,1007.91
2016-04-03T09:41:36.839Z,1007.9
2016-04-03T09:42:36.794Z,1007.96
2016-04-03T09:43:39.750Z,1007.95
2016-04-03T09:44:36.722Z,1007.96
2016-04-03T09:45:36.662Z,1007.98
2016-04-03T09:46:39.617Z,1007.98
2016-04-03T09:47:36.573Z,1007.99
2016-04-03T09:48:36.576Z,1008.01
2016-04-03T09:49:36.485Z,1008.08
2016-04-03T09:50:36.425Z,1008.11
2016-04-03T09:51:36.381Z,1008.1
2016-04-03T09:52:36.540Z,1008.12
2016-04-03T09:53:36.293Z,1008.12
2016-04-03T09:54:36.249Z,1008.09
2016-04-03T09:55:36.407Z,1008.06
2016-04-03T09:56:39.144Z,1008.06
2016-04-03T09:57:36.100Z,1008.07
2016-04-03T09:58:36.055Z,1008.05
2016-04-03T09:59:36.012Z,1008.02
2016-04-03T10:00:35.968Z,1008.03
2016-04-03T10:01:35.908Z,1008
2016-04-03T10:02:35.874Z,1007.98
2016-04-03T10:03:35.832Z,1007.98
2016-04-03T10:04:35.821Z,1007.98
2016-04-03T10:05:38.740Z,1007.94
2016-04-03T10:06:35.687Z,1007.88
2016-04-03T10:07:35.627Z,1007.85
2016-04-03T10:08:35.582Z,1007.86
2016-04-03T10:09:35.539Z,1007.82
2016-04-03T10:10:35.494Z,1007.86
2016-04-03T10:11:35.451Z,1007.89
2016-04-03T10:12:35.406Z,1007.86
2016-04-03T10:13:35.346Z,1007.85
2016-04-03T10:14:35.303Z,1007.9
2016-04-03T10:15:35.258Z,1007.91
2016-04-03T10:16:35.214Z,1007.92
2016-04-03T10:17:35.169Z,1008.01
2016-04-03T10:18:35.125Z,1008.01
2016-04-03T10:19:35.066Z,1008.04
2016-04-03T10:20:35.022Z,1008.08
2016-04-03T10:21:34.977Z,1008.06
2016-04-03T10:22:34.933Z,1008.03
2016-04-03T10:23:34.889Z,1008
2016-04-03T10:24:37.845Z,1008.01
2016-04-03T10:25:34.800Z,1007.99
2016-04-03T10:26:34.756Z,1008
2016-04-03T10:27:34.712Z,1007.99
2016-04-03T10:28:34.652Z,1007.98
2016-04-03T10:29:34.811Z,1007.99
2016-04-03T10:30:34.564Z,1008
2016-04-03T10:31:34.520Z,1008.01
2016-04-03T10:32:34.476Z,1008.07
2016-04-03T10:33:37.432Z,1008.03
2016-04-03T10:34:34.371Z,1008.01
2016-04-03T10:35:34.327Z,1008.01
2016-04-03T10:36:34.282Z,1007.99
2016-04-03T10:37:34.239Z,1007.99
2016-04-03T10:38:34.179Z,1007.94
2016-04-03T10:39:34.135Z,1007.89
2016-04-03T10:40:34.091Z,1007.86
2016-04-03T10:41:34.046Z,1007.85
2016-04-03T10:42:37.003Z,1007.83
2016-04-03T10:43:33.959Z,1007.83
2016-04-03T10:44:33.915Z,1007.79
2016-04-03T10:45:33.870Z,1007.79
2016-04-03T10:46:33.826Z,1007.77
2016-04-03T10:47:33.767Z,1007.76
2016-04-03T10:48:33.722Z,1007.81
2016-04-03T10:49:36.678Z,1007.79
2016-04-03T10:50:33.633Z,1007.8
2016-04-03T10:51:33.589Z,1007.88
2016-04-03T10:52:36.544Z,1007.85
2016-04-03T10:53:33.485Z,1007.82
2016-04-03T10:54:33.441Z,1007.77
2016-04-03T10:55:33.381Z,1007.83
2016-04-03T10:56:33.353Z,1007.8
2016-04-03T10:57:33.308Z,1007.8
2016-04-03T10:58:33.249Z,1007.78
2016-04-03T10:59:33.219Z,1007.78
2016-04-03T11:00:33.160Z,1007.75
2016-04-03T11:01:33.115Z,1007.72
2016-04-03T11:02:33.071Z,1007.66
2016-04-03T11:03:33.027Z,1007.64
2016-04-03T11:04:32.968Z,1007.69
2016-04-03T11:05:32.924Z,1007.71
2016-04-03T11:06:32.880Z,1007.7
2016-04-03T11:07:32.859Z,1007.75
2016-04-03T11:08:32.783Z,1007.75
2016-04-03T11:09:32.739Z,1007.69
2016-04-03T11:10:32.695Z,1007.69
2016-04-03T11:11:35.667Z,1007.65
2016-04-03T11:12:32.607Z,1007.68
2016-04-03T11:13:32.578Z,1007.66
2016-04-03T11:14:32.503Z,1007.62
2016-04-03T11:15:32.458Z,1007.59
2016-04-03T11:16:32.414Z,1007.6
2016-04-03T11:17:35.369Z,1007.55
2016-04-03T11:18:35.325Z,1007.58
2016-04-03T11:19:32.281Z,1007.59
2016-04-03T11:20:32.237Z,1007.58
2016-04-03T11:21:32.177Z,1007.54
2016-04-03T11:22:32.133Z,1007.5
2016-04-03T11:23:32.089Z,1007.48
2016-04-03T11:24:32.044Z,1007.51
2016-04-03T11:25:32.000Z,1007.49
2016-04-03T11:26:31.941Z,1007.44
2016-04-03T11:27:31.913Z,1007.48
2016-04-03T11:28:31.869Z,1007.47
2016-04-03T11:29:31.824Z,1007.51
2016-04-03T11:30:31.764Z,1007.46
2016-04-03T11:31:31.721Z,1007.44
2016-04-03T11:32:31.660Z,1007.4
2016-04-03T11:33:31.616Z,1007.39
2016-04-03T11:34:31.571Z,1007.43
2016-04-03T11:35:31.543Z,1007.48
2016-04-03T11:36:31.484Z,1007.51
2016-04-03T11:37:31.440Z,1007.5
2016-04-03T11:38:31.396Z,1007.51
2016-04-03T11:39:31.335Z,1007.47
2016-04-03T11:40:31.307Z,1007.47
2016-04-03T11:41:31.247Z,1007.47
2016-04-03T11:42:31.218Z,1007.51
2016-04-03T11:43:40.158Z,1007.46
2016-04-03T11:44:31.114Z,1007.46
2016-04-03T11:45:31.070Z,1007.45
2016-04-03T11:46:31.026Z,1007.44
2016-04-03T11:47:30.967Z,1007.49
2016-04-03T11:48:30.937Z,1007.47
2016-04-03T11:49:30.878Z,1007.46
2016-04-03T11:50:30.834Z,1007.46
2016-04-03T11:51:30.790Z,1007.47
2016-04-03T11:52:30.745Z,1007.42
2016-04-03T11:53:30.686Z,1007.43
2016-04-03T11:54:33.642Z,1007.43
2016-04-03T11:55:30.597Z,1007.42
2016-04-03T11:56:30.553Z,1007.35
2016-04-03T11:57:30.524Z,1007.4
2016-04-03T11:58:30.449Z,1007.35
2016-04-03T11:59:30.451Z,1007.38
2016-04-03T12:00:30.376Z,1007.37
2016-04-03T12:01:30.333Z,1007.33
2016-04-03T12:02:33.272Z,1007.31
2016-04-03T12:03:30.243Z,1007.28
2016-04-03T12:04:30.169Z,1007.23
2016-04-03T12:05:30.125Z,1007.23
2016-04-03T12:06:30.080Z,1007.21
2016-04-03T12:07:30.035Z,1007.23